sensor_id;sensor_type;location;lat;lon;timestamp;pressure;altitude;pressure_sealevel;temperature;humidity
12203;BME280;6164;42.178;24.622;2022-07-06T00:00:46;99492.81;;;22.14;66.12
12203;BME280;6164;42.178;24.622;2022-07-06T00:03:14;99491.38;;;22.07;66.63
12203;BME280;6164;42.178;24.622;2022-07-06T00:05:40;99492.41;;;22.06;66.51
12203;BME280;6164;42.178;24.622;2022-07-06T00:08:06;99489.88;;;22.16;66.63
12203;BME280;6164;42.178;24.622;2022-07-06T00:10:33;99486.22;;;22.22;66.88
12203;BME280;6164;42.178;24.622;2022-07-06T00:12:59;99482.97;;;22.20;67.20
12203;BME280;6164;42.178;24.622;2022-07-06T00:15:26;99483.63;;;22.10;68.14
12203;BME280;6164;42.178;24.622;2022-07-06T00:17:52;99486.47;;;22.21;68.51
12203;BME280;6164;42.178;24.622;2022-07-06T00:20:20;99479.06;;;22.11;69.09
12203;BME280;6164;42.178;24.622;2022-07-06T00:22:47;99480.03;;;22.05;69.75
12203;BME280;6164;42.178;24.622;2022-07-06T00:25:13;99468.94;;;22.18;69.62
12203;BME280;6164;42.178;24.622;2022-07-06T00:27:40;99470.09;;;22.22;69.46
12203;BME280;6164;42.178;24.622;2022-07-06T00:30:07;99459.50;;;22.32;69.92
12203;BME280;6164;42.178;24.622;2022-07-06T00:32:33;99456.78;;;22.49;70.01
12203;BME280;6164;42.178;24.622;2022-07-06T00:35:00;99456.84;;;22.54;70.16
12203;BME280;6164;42.178;24.622;2022-07-06T00:37:28;99451.78;;;22.57;69.86
12203;BME280;6164;42.178;24.622;2022-07-06T00:39:54;99447.81;;;22.60;69.89
12203;BME280;6164;42.178;24.622;2022-07-06T00:42:21;99445.75;;;22.67;69.79
12203;BME280;6164;42.178;24.622;2022-07-06T00:44:47;99438.22;;;22.69;70.06
12203;BME280;6164;42.178;24.622;2022-07-06T00:47:14;99438.22;;;22.69;70.00
12203;BME280;6164;42.178;24.622;2022-07-06T00:49:40;99425.66;;;22.74;70.07
12203;BME280;6164;42.178;24.622;2022-07-06T00:52:24;99423.78;;;22.75;69.93
12203;BME280;6164;42.178;24.622;2022-07-06T00:54:52;99416.03;;;22.78;70.20
12203;BME280;6164;42.178;24.622;2022-07-06T00:57:19;99408.72;;;22.79;69.83
12203;BME280;6164;42.178;24.622;2022-07-06T00:59:45;99405.28;;;22.83;69.50
12203;BME280;6164;42.178;24.622;2022-07-06T01:02:12;99402.13;;;22.86;68.96
12203;BME280;6164;42.178;24.622;2022-07-06T01:04:38;99402.13;;;22.86;68.06
12203;BME280;6164;42.178;24.622;2022-07-06T01:07:05;99395.09;;;22.85;68.42
12203;BME280;6164;42.178;24.622;2022-07-06T01:09:31;99387.31;;;22.89;68.24
12203;BME280;6164;42.178;24.622;2022-07-06T01:11:59;99379.81;;;22.91;67.72
12203;BME280;6164;42.178;24.622;2022-07-06T01:14:26;99370.66;;;22.92;67.39
12203;BME280;6164;42.178;24.622;2022-07-06T01:16:53;99369.63;;;22.93;67.23
12203;BME280;6164;42.178;24.622;2022-07-06T01:19:22;99368.53;;;22.94;66.59
12203;BME280;6164;42.178;24.622;2022-07-06T01:21:50;99357.75;;;22.94;67.34
12203;BME280;6164;42.178;24.622;2022-07-06T01:24:16;99351.88;;;22.97;66.97
12203;BME280;6164;42.178;24.622;2022-07-06T01:26:43;99348.13;;;22.98;66.05
12203;BME280;6164;42.178;24.622;2022-07-06T01:29:10;99340.06;;;22.98;66.68
12203;BME280;6164;42.178;24.622;2022-07-06T01:31:44;99341.66;;;22.99;66.72
12203;BME280;6164;42.178;24.622;2022-07-06T01:34:11;99341.91;;;22.97;66.97
12203;BME280;6164;42.178;24.622;2022-07-06T01:36:38;99332.50;;;23.00;66.70
12203;BME280;6164;42.178;24.622;2022-07-06T01:39:07;99329.59;;;23.01;67.41
12203;BME280;6164;42.178;24.622;2022-07-06T01:41:34;99321.75;;;23.00;67.46
12203;BME280;6164;42.178;24.622;2022-07-06T01:44:00;99325.56;;;23.04;66.13
12203;BME280;6164;42.178;24.622;2022-07-06T01:46:27;99314.75;;;22.99;66.09
12203;BME280;6164;42.178;24.622;2022-07-06T01:48:54;99312.56;;;22.96;66.35
12203;BME280;6164;42.178;24.622;2022-07-06T01:51:21;99312.25;;;22.92;67.05
12203;BME280;6164;42.178;24.622;2022-07-06T01:53:47;99304.69;;;22.89;67.82
12203;BME280;6164;42.178;24.622;2022-07-06T01:56:16;99306.31;;;22.90;68.12
12203;BME280;6164;42.178;24.622;2022-07-06T01:58:44;99300.13;;;22.90;68.26
12203;BME280;6164;42.178;24.622;2022-07-06T02:01:11;99297.44;;;22.90;68.54
12203;BME280;6164;42.178;24.622;2022-07-06T02:03:38;99297.66;;;22.88;67.91
12203;BME280;6164;42.178;24.622;2022-07-06T02:06:05;99288.81;;;22.88;68.67
12203;BME280;6164;42.178;24.622;2022-07-06T02:08:32;99286.63;;;22.85;69.31
12203;BME280;6164;42.178;24.622;2022-07-06T02:10:58;99288.75;;;22.83;69.36
12203;BME280;6164;42.178;24.622;2022-07-06T02:13:26;99294.91;;;22.78;70.30
12203;BME280;6164;42.178;24.622;2022-07-06T02:15:52;99289.53;;;22.78;69.90
12203;BME280;6164;42.178;24.622;2022-07-06T02:18:19;99294.34;;;22.76;69.76
12203;BME280;6164;42.178;24.622;2022-07-06T02:20:45;99303.47;;;22.75;70.73
12203;BME280;6164;42.178;24.622;2022-07-06T02:23:12;99307.19;;;22.69;70.18
12203;BME280;6164;42.178;24.622;2022-07-06T02:25:39;99316.22;;;22.58;70.35
12203;BME280;6164;42.178;24.622;2022-07-06T02:28:05;99320.44;;;22.33;72.02
12203;BME280;6164;42.178;24.622;2022-07-06T02:30:33;99318.38;;;22.18;72.72
12203;BME280;6164;42.178;24.622;2022-07-06T02:32:59;99319.84;;;21.87;73.83
12203;BME280;6164;42.178;24.622;2022-07-06T02:35:26;99315.94;;;21.78;74.85
12203;BME280;6164;42.178;24.622;2022-07-06T02:37:53;99317.88;;;21.66;75.71
12203;BME280;6164;42.178;24.622;2022-07-06T02:40:19;99321.72;;;21.54;76.53
12203;BME280;6164;42.178;24.622;2022-07-06T02:42:46;99334.34;;;21.37;77.76
12203;BME280;6164;42.178;24.622;2022-07-06T02:45:12;99329.34;;;21.12;79.67
12203;BME280;6164;42.178;24.622;2022-07-06T02:47:40;99323.03;;;20.90;81.39
12203;BME280;6164;42.178;24.622;2022-07-06T02:50:07;99322.63;;;20.81;82.24
12203;BME280;6164;42.178;24.622;2022-07-06T02:52:33;99331.16;;;20.78;82.86
12203;BME280;6164;42.178;24.622;2022-07-06T02:55:00;99329.41;;;20.72;83.38
12203;BME280;6164;42.178;24.622;2022-07-06T02:57:27;99335.59;;;20.73;83.96
12203;BME280;6164;42.178;24.622;2022-07-06T02:59:53;99326.97;;;20.71;83.76
12203;BME280;6164;42.178;24.622;2022-07-06T03:02:20;99330.00;;;20.74;83.79
12203;BME280;6164;42.178;24.622;2022-07-06T03:04:47;99329.25;;;20.79;83.76
12203;BME280;6164;42.178;24.622;2022-07-06T03:07:14;99336.19;;;20.75;84.31
12203;BME280;6164;42.178;24.622;2022-07-06T03:09:40;99333.00;;;20.78;84.32
12203;BME280;6164;42.178;24.622;2022-07-06T03:12:07;99327.31;;;20.74;84.09
12203;BME280;6164;42.178;24.622;2022-07-06T03:14:34;99337.41;;;20.84;84.20
12203;BME280;6164;42.178;24.622;2022-07-06T03:17:00;99332.97;;;20.89;83.80
12203;BME280;6164;42.178;24.622;2022-07-06T03:19:27;99339.84;;;20.97;83.40
12203;BME280;6164;42.178;24.622;2022-07-06T03:21:54;99334.09;;;21.05;82.84
12203;BME280;6164;42.178;24.622;2022-07-06T03:24:21;99336.63;;;21.12;82.81
12203;BME280;6164;42.178;24.622;2022-07-06T03:26:47;99338.06;;;21.19;82.56
12203;BME280;6164;42.178;24.622;2022-07-06T03:29:14;99341.66;;;21.25;83.63
12203;BME280;6164;42.178;24.622;2022-07-06T03:31:40;99349.72;;;21.25;84.60
12203;BME280;6164;42.178;24.622;2022-07-06T03:34:07;99350.84;;;21.29;85.16
12203;BME280;6164;42.178;24.622;2022-07-06T03:36:33;99350.69;;;21.35;84.92
12203;BME280;6164;42.178;24.622;2022-07-06T03:39:01;99357.63;;;21.48;84.59
12203;BME280;6164;42.178;24.622;2022-07-06T03:41:28;99363.88;;;21.53;85.39
12203;BME280;6164;42.178;24.622;2022-07-06T03:43:55;99361.59;;;21.62;85.61
12203;BME280;6164;42.178;24.622;2022-07-06T03:46:21;99363.16;;;21.74;85.86
12203;BME280;6164;42.178;24.622;2022-07-06T03:48:50;99369.91;;;21.93;85.65
12203;BME280;6164;42.178;24.622;2022-07-06T03:51:16;99374.19;;;22.11;86.25
12203;BME280;6164;42.178;24.622;2022-07-06T03:53:43;99378.16;;;22.25;85.47
12203;BME280;6164;42.178;24.622;2022-07-06T03:56:11;99373.19;;;22.34;85.89
12203;BME280;6164;42.178;24.622;2022-07-06T03:58:56;99371.09;;;22.41;86.88
12203;BME280;6164;42.178;24.622;2022-07-06T04:01:22;99366.84;;;22.45;87.24
12203;BME280;6164;42.178;24.622;2022-07-06T04:03:49;99361.78;;;22.48;87.88
12203;BME280;6164;42.178;24.622;2022-07-06T04:06:16;99359.50;;;22.57;88.52
12203;BME280;6164;42.178;24.622;2022-07-06T04:08:42;99358.56;;;22.68;88.29
12203;BME280;6164;42.178;24.622;2022-07-06T04:11:10;99363.44;;;22.71;87.36
12203;BME280;6164;42.178;24.622;2022-07-06T04:13:37;99372.66;;;22.75;87.64
12203;BME280;6164;42.178;24.622;2022-07-06T04:16:04;99375.41;;;22.80;87.78
12203;BME280;6164;42.178;24.622;2022-07-06T04:18:30;99366.25;;;22.81;88.08
12203;BME280;6164;42.178;24.622;2022-07-06T04:20:57;99365.16;;;22.82;88.88
12203;BME280;6164;42.178;24.622;2022-07-06T04:23:24;99365.72;;;22.84;89.91
12203;BME280;6164;42.178;24.622;2022-07-06T04:25:50;99374.63;;;22.84;89.74
12203;BME280;6164;42.178;24.622;2022-07-06T04:28:18;99372.19;;;22.83;90.93
12203;BME280;6164;42.178;24.622;2022-07-06T04:30:44;99373.75;;;22.79;91.06
12203;BME280;6164;42.178;24.622;2022-07-06T04:33:11;99375.94;;;22.82;91.37
12203;BME280;6164;42.178;24.622;2022-07-06T04:35:37;99372.97;;;22.83;91.99
12203;BME280;6164;42.178;24.622;2022-07-06T04:38:04;99367.13;;;22.86;91.37
12203;BME280;6164;42.178;24.622;2022-07-06T04:40:31;99369.31;;;22.89;91.55
12203;BME280;6164;42.178;24.622;2022-07-06T04:42:57;99364.81;;;23.00;91.57
12203;BME280;6164;42.178;24.622;2022-07-06T04:45:25;99363.31;;;23.09;90.88
12203;BME280;6164;42.178;24.622;2022-07-06T04:47:52;99358.03;;;23.19;91.01
12203;BME280;6164;42.178;24.622;2022-07-06T04:50:18;99368.94;;;23.29;91.06
12203;BME280;6164;42.178;24.622;2022-07-06T04:52:45;99371.41;;;23.35;90.53
12203;BME280;6164;42.178;24.622;2022-07-06T04:55:11;99371.75;;;23.44;88.79
12203;BME280;6164;42.178;24.622;2022-07-06T04:57:39;99378.75;;;23.45;89.23
12203;BME280;6164;42.178;24.622;2022-07-06T05:00:06;99373.41;;;23.50;88.50
12203;BME280;6164;42.178;24.622;2022-07-06T05:02:35;99369.38;;;23.53;86.85
12203;BME280;6164;42.178;24.622;2022-07-06T05:05:01;99378.66;;;23.67;87.16
12203;BME280;6164;42.178;24.622;2022-07-06T05:07:28;99375.97;;;23.67;87.00
12203;BME280;6164;42.178;24.622;2022-07-06T05:09:56;99385.31;;;23.59;86.46
12203;BME280;6164;42.178;24.622;2022-07-06T05:12:22;99386.19;;;23.65;86.69
12203;BME280;6164;42.178;24.622;2022-07-06T05:14:49;99387.31;;;23.69;86.78
12203;BME280;6164;42.178;24.622;2022-07-06T05:17:15;99398.41;;;23.72;86.27
12203;BME280;6164;42.178;24.622;2022-07-06T05:19:43;99356.47;;;23.55;85.99
12203;BME280;6164;42.178;24.622;2022-07-06T05:22:09;99397.69;;;23.87;86.35
12203;BME280;6164;42.178;24.622;2022-07-06T05:24:36;99407.44;;;23.93;86.05
12203;BME280;6164;42.178;24.622;2022-07-06T05:27:03;99405.38;;;24.00;84.27
12203;BME280;6164;42.178;24.622;2022-07-06T05:29:29;99404.81;;;23.98;83.64
12203;BME280;6164;42.178;24.622;2022-07-06T05:31:56;99407.09;;;24.16;84.63
12203;BME280;6164;42.178;24.622;2022-07-06T05:34:22;99407.16;;;24.26;83.71
12203;BME280;6164;42.178;24.622;2022-07-06T05:36:50;99405.00;;;24.28;82.07
12203;BME280;6164;42.178;24.622;2022-07-06T05:39:17;99416.16;;;24.41;82.06
12203;BME280;6164;42.178;24.622;2022-07-06T05:41:44;99421.25;;;24.38;79.87
12203;BME280;6164;42.178;24.622;2022-07-06T05:44:11;99425.56;;;24.39;78.78
12203;BME280;6164;42.178;24.622;2022-07-06T05:46:37;99436.06;;;24.35;79.01
12203;BME280;6164;42.178;24.622;2022-07-06T05:49:04;99425.50;;;24.29;79.22
12203;BME280;6164;42.178;24.622;2022-07-06T05:51:47;99428.22;;;24.34;78.43
12203;BME280;6164;42.178;24.622;2022-07-06T05:54:16;99438.53;;;24.42;78.17
12203;BME280;6164;42.178;24.622;2022-07-06T05:56:42;99436.13;;;24.45;78.01
12203;BME280;6164;42.178;24.622;2022-07-06T05:59:09;99438.50;;;24.37;77.54
12203;BME280;6164;42.178;24.622;2022-07-06T06:01:35;99431.81;;;24.44;78.07
12203;BME280;6164;42.178;24.622;2022-07-06T06:04:02;99435.28;;;24.40;77.95
12203;BME280;6164;42.178;24.622;2022-07-06T06:06:28;99439.16;;;24.59;77.53
12203;BME280;6164;42.178;24.622;2022-07-06T06:08:56;99439.47;;;24.62;75.99
12203;BME280;6164;42.178;24.622;2022-07-06T06:11:24;99437.06;;;24.66;75.20
12203;BME280;6164;42.178;24.622;2022-07-06T06:13:50;99439.50;;;24.67;76.00
12203;BME280;6164;42.178;24.622;2022-07-06T06:16:17;99436.88;;;24.78;75.66
12203;BME280;6164;42.178;24.622;2022-07-06T06:18:43;99434.63;;;24.69;75.09
12203;BME280;6164;42.178;24.622;2022-07-06T06:21:10;99431.44;;;24.73;75.29
12203;BME280;6164;42.178;24.622;2022-07-06T06:23:36;99430.34;;;24.74;74.34
12203;BME280;6164;42.178;24.622;2022-07-06T06:26:03;99436.75;;;24.62;75.29
12203;BME280;6164;42.178;24.622;2022-07-06T06:28:31;99433.59;;;24.71;75.86
12203;BME280;6164;42.178;24.622;2022-07-06T06:30:57;99428.88;;;24.51;75.56
12203;BME280;6164;42.178;24.622;2022-07-06T06:33:24;99436.22;;;24.60;76.64
12203;BME280;6164;42.178;24.622;2022-07-06T06:35:51;99434.63;;;24.69;76.25
12203;BME280;6164;42.178;24.622;2022-07-06T06:38:18;99434.59;;;24.59;75.52
12203;BME280;6164;42.178;24.622;2022-07-06T06:40:44;99437.75;;;24.51;76.39
12203;BME280;6164;42.178;24.622;2022-07-06T06:43:11;99443.25;;;24.66;77.59
12203;BME280;6164;42.178;24.622;2022-07-06T06:45:39;99441.41;;;24.72;76.26
12203;BME280;6164;42.178;24.622;2022-07-06T06:48:05;99442.50;;;24.71;75.43
12203;BME280;6164;42.178;24.622;2022-07-06T06:50:32;99438.38;;;24.63;76.66
12203;BME280;6164;42.178;24.622;2022-07-06T06:52:59;99434.13;;;24.67;75.32
12203;BME280;6164;42.178;24.622;2022-07-06T06:55:25;99430.28;;;24.63;77.07
12203;BME280;6164;42.178;24.622;2022-07-06T06:57:52;99431.72;;;24.71;75.82
12203;BME280;6164;42.178;24.622;2022-07-06T07:00:18;99432.75;;;24.70;75.59
12203;BME280;6164;42.178;24.622;2022-07-06T07:02:46;99434.59;;;24.64;75.24
12203;BME280;6164;42.178;24.622;2022-07-06T07:05:13;99418.88;;;24.51;75.58
12203;BME280;6164;42.178;24.622;2022-07-06T07:07:39;99425.16;;;24.62;76.53
12203;BME280;6164;42.178;24.622;2022-07-06T07:10:06;99423.06;;;24.69;75.09
12203;BME280;6164;42.178;24.622;2022-07-06T07:12:33;99425.47;;;24.71;76.00
12203;BME280;6164;42.178;24.622;2022-07-06T07:14:59;99421.16;;;24.75;74.55
12203;BME280;6164;42.178;24.622;2022-07-06T07:17:26;99422.28;;;24.84;75.13
12203;BME280;6164;42.178;24.622;2022-07-06T07:19:54;99416.34;;;24.82;74.46
12203;BME280;6164;42.178;24.622;2022-07-06T07:22:22;99418.53;;;24.90;74.43
12203;BME280;6164;42.178;24.622;2022-07-06T07:24:48;99416.97;;;25.04;74.42
12203;BME280;6164;42.178;24.622;2022-07-06T07:27:15;99419.94;;;25.17;72.95
12203;BME280;6164;42.178;24.622;2022-07-06T07:29:41;99420.81;;;25.33;72.06
12203;BME280;6164;42.178;24.622;2022-07-06T07:32:08;99417.06;;;25.44;70.90
12203;BME280;6164;42.178;24.622;2022-07-06T07:34:34;99424.91;;;25.50;70.35
12203;BME280;6164;42.178;24.622;2022-07-06T07:37:02;99417.06;;;25.44;69.93
12203;BME280;6164;42.178;24.622;2022-07-06T07:39:29;99412.75;;;25.48;70.95
12203;BME280;6164;42.178;24.622;2022-07-06T07:41:55;99421.13;;;25.56;69.92
12203;BME280;6164;42.178;24.622;2022-07-06T07:44:22;99424.66;;;25.72;71.67
12203;BME280;6164;42.178;24.622;2022-07-06T07:46:49;99423.31;;;25.84;69.69
12203;BME280;6164;42.178;24.622;2022-07-06T07:49:17;99425.75;;;26.06;70.24
12203;BME280;6164;42.178;24.622;2022-07-06T07:51:44;99420.84;;;26.13;69.07
12203;BME280;6164;42.178;24.622;2022-07-06T07:54:13;99420.28;;;26.26;68.58
12203;BME280;6164;42.178;24.622;2022-07-06T07:56:39;99410.81;;;26.39;69.34
12203;BME280;6164;42.178;24.622;2022-07-06T07:59:06;99412.94;;;26.47;68.56
12203;BME280;6164;42.178;24.622;2022-07-06T08:01:33;99416.97;;;26.49;67.42
12203;BME280;6164;42.178;24.622;2022-07-06T08:03:59;99417.22;;;26.63;66.13
12203;BME280;6164;42.178;24.622;2022-07-06T08:06:26;99415.59;;;26.72;65.64
12203;BME280;6164;42.178;24.622;2022-07-06T08:08:53;99408.25;;;26.72;65.81
12203;BME280;6164;42.178;24.622;2022-07-06T08:11:21;99422.34;;;26.74;64.33
12203;BME280;6164;42.178;24.622;2022-07-06T08:13:47;99418.78;;;26.84;64.53
12203;BME280;6164;42.178;24.622;2022-07-06T08:16:13;99417.41;;;26.91;64.85
12203;BME280;6164;42.178;24.622;2022-07-06T08:18:40;99417.44;;;26.81;64.97
12203;BME280;6164;42.178;24.622;2022-07-06T08:21:07;99411.97;;;26.91;63.95
12203;BME280;6164;42.178;24.622;2022-07-06T08:23:33;99412.50;;;26.98;63.58
12203;BME280;6164;42.178;24.622;2022-07-06T08:26:00;99412.44;;;27.03;63.13
12203;BME280;6164;42.178;24.622;2022-07-06T08:28:28;99410.78;;;27.12;62.43
12203;BME280;6164;42.178;24.622;2022-07-06T08:30:55;99413.88;;;26.86;62.64
12203;BME280;6164;42.178;24.622;2022-07-06T08:33:21;99418.72;;;26.94;63.73
12203;BME280;6164;42.178;24.622;2022-07-06T08:35:48;99410.59;;;26.94;64.32
12203;BME280;6164;42.178;24.622;2022-07-06T08:38:14;99410.63;;;26.89;64.28
12203;BME280;6164;42.178;24.622;2022-07-06T08:40:41;99411.13;;;26.96;62.93
12203;BME280;6164;42.178;24.622;2022-07-06T08:43:12;99416.00;;;26.94;64.34
12203;BME280;6164;42.178;24.622;2022-07-06T08:45:41;99413.06;;;26.90;64.72
12203;BME280;6164;42.178;24.622;2022-07-06T08:48:09;99414.16;;;26.89;65.80
12203;BME280;6164;42.178;24.622;2022-07-06T08:50:36;99416.00;;;26.94;64.46
12203;BME280;6164;42.178;24.622;2022-07-06T08:53:03;99415.78;;;26.85;64.97
12203;BME280;6164;42.178;24.622;2022-07-06T08:55:30;99411.19;;;26.86;64.71
12203;BME280;6164;42.178;24.622;2022-07-06T08:57:57;99409.00;;;26.88;64.56
12203;BME280;6164;42.178;24.622;2022-07-06T09:00:23;99417.41;;;26.86;65.09
12203;BME280;6164;42.178;24.622;2022-07-06T09:02:52;99409.28;;;26.91;64.13
12203;BME280;6164;42.178;24.622;2022-07-06T09:05:22;99411.38;;;26.99;64.96
12203;BME280;6164;42.178;24.622;2022-07-06T09:07:49;99415.13;;;27.08;64.55
12203;BME280;6164;42.178;24.622;2022-07-06T09:10:16;99411.38;;;27.04;65.11
12203;BME280;6164;42.178;24.622;2022-07-06T09:12:43;99419.19;;;27.11;64.18
12203;BME280;6164;42.178;24.622;2022-07-06T09:15:09;99415.72;;;27.00;64.43
12203;BME280;6164;42.178;24.622;2022-07-06T09:17:37;99419.25;;;27.01;62.86
12203;BME280;6164;42.178;24.622;2022-07-06T09:20:06;99416.00;;;26.99;61.98
12203;BME280;6164;42.178;24.622;2022-07-06T09:22:33;99415.44;;;27.02;62.86
12203;BME280;6164;42.178;24.622;2022-07-06T09:25:03;99419.19;;;27.11;61.67
12203;BME280;6164;42.178;24.622;2022-07-06T09:27:30;99412.38;;;27.13;59.61
12203;BME280;6164;42.178;24.622;2022-07-06T09:29:59;99410.22;;;27.10;60.51
12203;BME280;6164;42.178;24.622;2022-07-06T09:32:25;99409.66;;;27.13;61.14
12203;BME280;6164;42.178;24.622;2022-07-06T09:34:52;99413.13;;;27.24;59.85
12203;BME280;6164;42.178;24.622;2022-07-06T09:37:21;99411.75;;;27.32;60.05
12203;BME280;6164;42.178;24.622;2022-07-06T09:39:47;99413.84;;;27.45;59.43
12203;BME280;6164;42.178;24.622;2022-07-06T09:42:14;99406.16;;;27.57;58.46
12203;BME280;6164;42.178;24.622;2022-07-06T09:44:41;99408.19;;;27.75;59.21
12203;BME280;6164;42.178;24.622;2022-07-06T09:47:08;99389.63;;;27.87;58.74
12203;BME280;6164;42.178;24.622;2022-07-06T09:49:35;99388.38;;;28.08;57.05
12203;BME280;6164;42.178;24.622;2022-07-06T09:52:02;99391.41;;;28.30;56.30
12203;BME280;6164;42.178;24.622;2022-07-06T09:54:31;99387.84;;;28.58;55.33
12203;BME280;6164;42.178;24.622;2022-07-06T09:56:58;99385.72;;;28.74;53.90
12203;BME280;6164;42.178;24.622;2022-07-06T09:59:25;99381.94;;;28.93;52.71
12203;BME280;6164;42.178;24.622;2022-07-06T10:01:52;99383.66;;;29.08;52.23
12203;BME280;6164;42.178;24.622;2022-07-06T10:04:19;99383.94;;;29.43;52.32
12203;BME280;6164;42.178;24.622;2022-07-06T10:06:46;99384.06;;;29.71;51.40
12203;BME280;6164;42.178;24.622;2022-07-06T10:09:13;99372.72;;;29.96;50.61
12203;BME280;6164;42.178;24.622;2022-07-06T10:11:42;99378.19;;;29.96;49.14
12203;BME280;6164;42.178;24.622;2022-07-06T10:14:10;99380.38;;;29.94;50.69
12203;BME280;6164;42.178;24.622;2022-07-06T10:16:39;99374.56;;;30.14;49.20
12203;BME280;6164;42.178;24.622;2022-07-06T10:19:05;99383.41;;;30.38;48.13
12203;BME280;6164;42.178;24.622;2022-07-06T10:21:33;99376.81;;;30.66;48.68
12203;BME280;6164;42.178;24.622;2022-07-06T10:24:01;99373.00;;;30.80;46.74
12203;BME280;6164;42.178;24.622;2022-07-06T10:26:28;99373.69;;;30.86;46.21
12203;BME280;6164;42.178;24.622;2022-07-06T10:28:57;99376.41;;;30.86;47.10
12203;BME280;6164;42.178;24.622;2022-07-06T10:31:24;99363.22;;;30.79;47.87
12203;BME280;6164;42.178;24.622;2022-07-06T10:33:51;99361.13;;;30.36;48.46
12203;BME280;6164;42.178;24.622;2022-07-06T10:36:18;99357.06;;;30.60;49.01
12203;BME280;6164;42.178;24.622;2022-07-06T10:38:46;99350.38;;;30.94;48.51
12203;BME280;6164;42.178;24.622;2022-07-06T10:41:14;99359.09;;;31.04;46.79
12203;BME280;6164;42.178;24.622;2022-07-06T10:43:42;99357.50;;;31.03;45.17
12203;BME280;6164;42.178;24.622;2022-07-06T10:46:10;99354.66;;;31.08;46.02
12203;BME280;6164;42.178;24.622;2022-07-06T10:48:37;99357.78;;;31.15;45.18
12203;BME280;6164;42.178;24.622;2022-07-06T10:51:04;99363.72;;;31.17;44.35
12203;BME280;6164;42.178;24.622;2022-07-06T10:53:32;99353.72;;;31.13;46.43
12203;BME280;6164;42.178;24.622;2022-07-06T10:56:00;99360.97;;;31.17;44.68
12203;BME280;6164;42.178;24.622;2022-07-06T11:01:13;99349.97;;;30.73;44.48
12203;BME280;6164;42.178;24.622;2022-07-06T11:03:40;99356.72;;;30.89;44.38
12203;BME280;6164;42.178;24.622;2022-07-06T11:06:09;99355.72;;;30.99;44.80
12203;BME280;6164;42.178;24.622;2022-07-06T11:08:50;99358.56;;;30.80;44.14
12203;BME280;6164;42.178;24.622;2022-07-06T11:11:17;99350.19;;;30.90;44.55
12203;BME280;6164;42.178;24.622;2022-07-06T11:13:47;99349.41;;;31.12;43.41
12203;BME280;6164;42.178;24.622;2022-07-06T11:16:15;99345.59;;;31.57;42.71
12203;BME280;6164;42.178;24.622;2022-07-06T11:18:45;99347.28;;;31.66;41.09
12203;BME280;6164;42.178;24.622;2022-07-06T11:21:19;99338.63;;;31.95;42.60
12203;BME280;6164;42.178;24.622;2022-07-06T11:23:49;99349.94;;;32.10;39.72
12203;BME280;6164;42.178;24.622;2022-07-06T11:26:16;99360.56;;;32.12;38.43
12203;BME280;6164;42.178;24.622;2022-07-06T11:28:44;99350.44;;;32.13;38.35
12203;BME280;6164;42.178;24.622;2022-07-06T11:31:11;99353.31;;;32.07;38.22
12203;BME280;6164;42.178;24.622;2022-07-06T11:33:39;99347.53;;;32.17;38.85
12203;BME280;6164;42.178;24.622;2022-07-06T11:36:16;99345.25;;;32.11;38.35
12203;BME280;6164;42.178;24.622;2022-07-06T11:38:43;99337.47;;;32.27;38.50
12203;BME280;6164;42.178;24.622;2022-07-06T11:41:10;99343.63;;;32.41;38.17
12203;BME280;6164;42.178;24.622;2022-07-06T11:43:38;99345.53;;;32.88;37.81
12203;BME280;6164;42.178;24.622;2022-07-06T11:46:17;99322.34;;;33.28;39.04
12203;BME280;6164;42.178;24.622;2022-07-06T11:48:46;99367.44;;;33.39;35.84
12203;BME280;6164;42.178;24.622;2022-07-06T11:51:13;99351.50;;;33.24;35.85
12203;BME280;6164;42.178;24.622;2022-07-06T11:53:41;99338.97;;;33.14;36.08
12203;BME280;6164;42.178;24.622;2022-07-06T11:56:08;99345.19;;;32.81;36.17
12203;BME280;6164;42.178;24.622;2022-07-06T11:58:35;99346.31;;;32.88;35.49
12203;BME280;6164;42.178;24.622;2022-07-06T12:01:02;99347.75;;;32.86;36.45
12203;BME280;6164;42.178;24.622;2022-07-06T12:03:29;99306.47;;;33.04;38.41
12203;BME280;6164;42.178;24.622;2022-07-06T12:05:59;99322.72;;;33.01;37.67
12203;BME280;6164;42.178;24.622;2022-07-06T12:08:26;99327.03;;;33.02;37.29
12203;BME280;6164;42.178;24.622;2022-07-06T12:10:52;99320.63;;;32.98;37.23
12203;BME280;6164;42.178;24.622;2022-07-06T12:13:19;99304.38;;;33.01;38.17
12203;BME280;6164;42.178;24.622;2022-07-06T12:15:46;99305.81;;;32.99;37.08
12203;BME280;6164;42.178;24.622;2022-07-06T12:18:12;99308.72;;;32.94;37.72
12203;BME280;6164;42.178;24.622;2022-07-06T12:20:39;99289.06;;;33.00;37.96
12203;BME280;6164;42.178;24.622;2022-07-06T12:23:07;99291.00;;;33.08;37.88
12203;BME280;6164;42.178;24.622;2022-07-06T12:25:34;99304.22;;;32.98;37.41
12203;BME280;6164;42.178;24.622;2022-07-06T12:28:00;99303.22;;;32.94;37.53
12203;BME280;6164;42.178;24.622;2022-07-06T12:30:27;99279.09;;;32.96;38.95
12203;BME280;6164;42.178;24.622;2022-07-06T12:33:13;99291.81;;;32.92;38.45
12203;BME280;6164;42.178;24.622;2022-07-06T12:35:40;99287.16;;;33.01;38.43
12203;BME280;6164;42.178;24.622;2022-07-06T12:38:08;99278.13;;;33.26;38.79
12203;BME280;6164;42.178;24.622;2022-07-06T12:40:35;99297.88;;;33.40;36.93
12203;BME280;6164;42.178;24.622;2022-07-06T12:43:02;99293.81;;;33.72;36.49
12203;BME280;6164;42.178;24.622;2022-07-06T12:45:29;99294.53;;;34.06;36.80
12203;BME280;6164;42.178;24.622;2022-07-06T12:47:58;99278.59;;;34.29;37.06
12203;BME280;6164;42.178;24.622;2022-07-06T12:50:31;99275.78;;;34.46;36.47
12203;BME280;6164;42.178;24.622;2022-07-06T12:52:58;99284.56;;;34.60;36.14
12203;BME280;6164;42.178;24.622;2022-07-06T12:55:27;99285.06;;;34.83;35.98
12203;BME280;6164;42.178;24.622;2022-07-06T12:57:54;99281.69;;;34.98;35.44
12203;BME280;6164;42.178;24.622;2022-07-06T13:00:21;99273.75;;;35.05;35.77
12203;BME280;6164;42.178;24.622;2022-07-06T13:02:48;99256.81;;;35.03;37.10